createdAt,value
2022-12-02T00:00:28.108Z,11.80
2022-12-02T00:02:56.648Z,10.70
2022-12-02T00:05:30.685Z,12.00
2022-12-02T00:07:59.941Z,10.40
2022-12-02T00:10:28.877Z,11.52
2022-12-02T00:12:57.001Z,11.60
2022-12-02T00:15:39.313Z,11.90
2022-12-02T00:18:05.873Z,10.87
2022-12-02T00:20:32.440Z,10.68
2022-12-02T00:22:58.996Z,11.82
2022-12-02T00:25:25.591Z,11.85
2022-12-02T00:27:52.209Z,12.45
2022-12-02T00:30:18.765Z,12.07
2022-12-02T00:32:46.830Z,12.05
2022-12-02T00:35:13.382Z,11.68
2022-12-02T00:37:39.894Z,10.85
2022-12-02T00:40:07.543Z,10.35
2022-12-02T00:42:34.112Z,10.10
2022-12-02T00:45:00.889Z,10.65
2022-12-02T00:47:27.361Z,10.55
2022-12-02T00:49:55.279Z,11.05
2022-12-02T00:52:21.859Z,10.43
2022-12-02T00:54:48.650Z,10.20
2022-12-02T00:57:15.327Z,10.13
2022-12-02T00:59:41.882Z,9.25
2022-12-02T01:02:08.401Z,9.30
2022-12-02T01:04:35.114Z,9.93
2022-12-02T01:07:03.179Z,9.20
2022-12-02T01:09:29.755Z,9.55
2022-12-02T01:11:56.328Z,9.70
2022-12-02T01:14:22.828Z,10.30
2022-12-02T01:16:49.575Z,9.68
2022-12-02T01:19:16.238Z,9.03
2022-12-02T01:21:42.762Z,8.95
2022-12-02T01:24:10.698Z,9.52
2022-12-02T01:26:37.246Z,9.27
2022-12-02T01:29:03.989Z,9.05
2022-12-02T01:31:30.575Z,8.70
2022-12-02T01:33:57.347Z,8.20
2022-12-02T01:36:23.873Z,9.68
2022-12-02T01:38:50.410Z,7.95
2022-12-02T01:41:18.702Z,10.00
2022-12-02T01:43:45.426Z,9.10
2022-12-02T01:46:12.747Z,8.90
2022-12-02T01:48:39.434Z,9.25
2022-12-02T01:51:06.513Z,7.90
2022-12-02T01:53:33.624Z,8.18
2022-12-02T01:56:00.196Z,8.77
2022-12-02T01:58:30.601Z,8.80
2022-12-02T02:00:58.267Z,9.27
2022-12-02T02:03:24.913Z,8.68
2022-12-02T02:05:51.576Z,8.55
2022-12-02T02:08:18.689Z,8.43
2022-12-02T02:10:46.835Z,8.73
2022-12-02T02:13:16.057Z,8.43
2022-12-02T02:15:45.392Z,8.75
2022-12-02T02:18:12.203Z,9.02
2022-12-02T02:20:40.327Z,8.20
2022-12-02T02:23:22.581Z,8.73
2022-12-02T02:25:53.056Z,9.00
2022-12-02T02:28:20.835Z,8.40
2022-12-02T02:30:47.477Z,8.52
2022-12-02T02:33:15.981Z,8.17
2022-12-02T02:35:44.477Z,8.70
2022-12-02T02:38:14.573Z,9.00
2022-12-02T02:40:43.871Z,9.15
2022-12-02T02:43:11.508Z,7.75
2022-12-02T02:45:41.406Z,8.90
2022-12-02T02:48:10.873Z,8.70
2022-12-02T02:50:40.449Z,7.80
2022-12-02T02:53:07.712Z,8.32
2022-12-02T02:55:34.990Z,8.00
2022-12-02T02:58:09.033Z,8.47
2022-12-02T03:00:36.177Z,8.88
2022-12-02T03:03:04.118Z,9.45
2022-12-02T03:05:30.820Z,8.15
2022-12-02T03:07:57.695Z,9.13
2022-12-02T03:10:24.836Z,8.00
2022-12-02T03:12:51.490Z,8.68
2022-12-02T03:15:19.631Z,8.13
2022-12-02T03:17:46.461Z,8.45
2022-12-02T03:20:13.762Z,8.10
2022-12-02T03:22:40.426Z,7.90
2022-12-02T03:25:08.487Z,8.57
2022-12-02T03:27:35.384Z,7.82
2022-12-02T03:30:02.459Z,9.20
2022-12-02T03:32:30.516Z,8.00
2022-12-02T03:34:57.650Z,7.03
2022-12-02T03:37:24.314Z,7.65
2022-12-02T03:39:51.586Z,7.90
2022-12-02T03:42:18.652Z,7.32
2022-12-02T03:44:45.727Z,7.88
2022-12-02T03:47:12.929Z,7.93
2022-12-02T03:49:40.998Z,7.60
2022-12-02T03:52:07.801Z,8.10
2022-12-02T03:54:34.613Z,7.63
2022-12-02T03:57:04.260Z,8.07
2022-12-02T03:59:31.045Z,6.97
2022-12-02T04:01:57.789Z,7.38
2022-12-02T04:04:24.440Z,7.95
2022-12-02T04:06:52.522Z,7.35
2022-12-02T04:09:19.066Z,6.68
2022-12-02T04:11:45.597Z,7.00
2022-12-02T04:14:12.591Z,7.47
2022-12-02T04:16:39.130Z,6.72
2022-12-02T04:19:05.745Z,6.50
2022-12-02T04:21:32.324Z,6.78
2022-12-02T04:24:00.246Z,6.90
2022-12-02T04:26:26.786Z,6.70
2022-12-02T04:28:53.458Z,7.05
2022-12-02T04:31:20.147Z,6.72
2022-12-02T04:33:46.678Z,7.38
2022-12-02T04:36:13.219Z,6.73
2022-12-02T04:38:39.751Z,6.70
2022-12-02T04:41:07.730Z,7.13
2022-12-02T04:43:34.448Z,6.95
2022-12-02T04:46:00.990Z,7.55
2022-12-02T04:48:27.555Z,7.30
2022-12-02T04:50:54.214Z,7.00
2022-12-02T04:53:20.762Z,6.93
2022-12-02T04:55:47.314Z,7.45
2022-12-02T04:58:15.410Z,7.68
2022-12-02T05:00:41.993Z,7.53
2022-12-02T05:03:08.806Z,7.38
2022-12-02T05:05:35.357Z,8.02
2022-12-02T05:08:01.922Z,8.35
2022-12-02T05:10:28.505Z,9.73
2022-12-02T05:12:55.031Z,8.60
2022-12-02T05:15:22.954Z,9.05
2022-12-02T05:17:49.522Z,9.02
2022-12-02T05:20:16.645Z,8.82
2022-12-02T05:22:43.212Z,10.02
2022-12-02T05:25:10.042Z,8.77
2022-12-02T05:27:36.598Z,8.77
2022-12-02T05:30:04.323Z,9.15
2022-12-02T05:32:32.255Z,9.35
2022-12-02T05:34:58.798Z,10.35
2022-12-02T05:37:25.677Z,9.03
2022-12-02T05:39:53.245Z,8.75
2022-12-02T05:42:19.990Z,9.45
2022-12-02T05:44:46.589Z,9.55
2022-12-02T05:47:15.264Z,9.82
2022-12-02T05:49:45.611Z,8.10
2022-12-02T05:52:23.407Z,9.85
2022-12-02T05:54:53.978Z,9.43
2022-12-02T05:57:27.736Z,8.80
2022-12-02T06:00:02.061Z,9.10
2022-12-02T06:02:38.869Z,9.97
2022-12-02T06:05:17.164Z,9.32
2022-12-02T06:07:43.988Z,9.85
2022-12-02T06:10:21.802Z,9.10
2022-12-02T06:12:48.626Z,9.43
2022-12-02T06:15:15.345Z,9.90
2022-12-02T06:17:42.228Z,8.52
2022-12-02T06:20:21.494Z,9.20
2022-12-02T06:22:48.079Z,10.23
2022-12-02T06:25:24.931Z,8.95
2022-12-02T06:27:54.171Z,9.63
2022-12-02T06:30:20.772Z,9.00
2022-12-02T06:32:52.189Z,8.98
2022-12-02T06:35:24.532Z,8.43
2022-12-02T06:37:54.594Z,9.45
2022-12-02T06:40:29.363Z,8.50
2022-12-02T06:42:57.747Z,8.88
2022-12-02T06:45:29.853Z,8.73
2022-12-02T06:48:08.499Z,8.63
2022-12-02T06:50:42.797Z,8.90
2022-12-02T06:53:26.701Z,8.23
2022-12-02T06:55:58.479Z,9.82
2022-12-02T06:58:43.630Z,9.40
2022-12-02T07:01:20.912Z,9.55
2022-12-02T07:03:53.739Z,9.38
2022-12-02T07:06:25.297Z,8.90
2022-12-02T07:08:52.452Z,9.30
2022-12-02T07:11:22.670Z,10.40
2022-12-02T07:13:49.667Z,9.80
2022-12-02T07:16:35.213Z,9.68
2022-12-02T07:19:02.061Z,8.87
2022-12-02T07:21:29.978Z,9.50
2022-12-02T07:23:57.176Z,9.77
2022-12-02T07:26:24.402Z,9.60
2022-12-02T07:29:06.898Z,10.18
2022-12-02T07:31:41.929Z,9.27
2022-12-02T07:34:08.446Z,9.85
2022-12-02T07:36:36.554Z,9.88
2022-12-02T07:39:06.266Z,10.48
2022-12-02T07:41:36.888Z,10.38
2022-12-02T07:44:04.432Z,9.80
2022-12-02T07:46:31.122Z,9.68
2022-12-02T07:48:57.793Z,10.80
2022-12-02T07:51:24.471Z,10.63
2022-12-02T07:53:52.431Z,10.32
2022-12-02T07:56:18.985Z,10.73
2022-12-02T08:01:32.349Z,10.30
2022-12-02T08:03:59.006Z,9.93
2022-12-02T08:06:25.774Z,10.65
2022-12-02T08:08:53.629Z,9.73
2022-12-02T08:11:20.276Z,10.02
2022-12-02T08:13:46.842Z,10.20
2022-12-02T08:16:13.546Z,9.85
2022-12-02T08:18:40.146Z,9.88
2022-12-02T08:21:09.171Z,9.23
2022-12-02T08:23:36.195Z,10.05
2022-12-02T08:26:04.316Z,10.65
2022-12-02T08:28:30.946Z,10.05
2022-12-02T08:30:57.603Z,9.75
2022-12-02T08:33:24.292Z,9.27
2022-12-02T08:35:50.896Z,8.57
2022-12-02T08:38:17.610Z,10.05
2022-12-02T08:40:44.312Z,9.00
2022-12-02T08:43:12.603Z,9.35
2022-12-02T08:45:39.200Z,9.53
2022-12-02T08:48:05.971Z,9.00
2022-12-02T08:50:32.854Z,9.50
2022-12-02T08:52:59.397Z,8.90
2022-12-02T08:55:25.929Z,8.95
2022-12-02T08:57:52.804Z,9.17
2022-12-02T09:00:21.396Z,8.82
2022-12-02T09:02:48.210Z,9.30
2022-12-02T09:05:15.088Z,8.80
2022-12-02T09:07:41.729Z,8.70
2022-12-02T09:10:10.513Z,8.60
2022-12-02T09:12:37.124Z,8.60
2022-12-02T09:15:04.279Z,9.07
2022-12-02T09:17:32.248Z,8.55
2022-12-02T09:19:58.793Z,8.80
2022-12-02T09:22:25.397Z,8.73
2022-12-02T09:24:52.283Z,8.35
2022-12-02T09:27:18.979Z,8.98
2022-12-02T09:29:45.644Z,8.73
2022-12-02T09:32:12.160Z,9.02
2022-12-02T09:34:40.133Z,7.83
2022-12-02T09:37:06.861Z,8.50
2022-12-02T09:39:38.543Z,8.27
2022-12-02T09:42:05.996Z,8.95
2022-12-02T09:44:32.683Z,9.07
2022-12-02T09:46:59.507Z,8.10
2022-12-02T09:49:26.215Z,8.43
2022-12-02T09:51:58.255Z,8.35
2022-12-02T09:54:24.893Z,7.47
2022-12-02T09:56:51.493Z,8.43
2022-12-02T09:59:18.110Z,7.83
2022-12-02T10:01:49.117Z,8.05
2022-12-02T10:04:19.724Z,7.90
2022-12-02T10:06:47.300Z,7.38
2022-12-02T10:09:18.404Z,7.68
2022-12-02T10:11:45.629Z,7.13
2022-12-02T10:14:13.285Z,6.97
2022-12-02T10:16:40.616Z,7.68
2022-12-02T10:19:08.119Z,7.90
2022-12-02T10:21:35.079Z,7.75
2022-12-02T10:24:05.134Z,7.47
2022-12-02T10:26:47.459Z,6.70
2022-12-02T10:29:17.548Z,6.75
2022-12-02T10:31:55.545Z,8.38
2022-12-02T10:34:23.227Z,6.90
2022-12-02T10:36:51.074Z,6.30
2022-12-02T10:39:26.436Z,6.72
2022-12-02T10:45:07.553Z,7.07
2022-12-02T10:47:34.095Z,5.97
2022-12-02T10:50:01.271Z,6.53
2022-12-02T10:52:31.462Z,5.93
2022-12-02T10:55:00.029Z,6.28
2022-12-02T10:57:28.822Z,6.47
2022-12-02T10:59:58.217Z,7.28
2022-12-02T11:02:30.664Z,7.30
2022-12-02T11:04:59.442Z,6.37
2022-12-02T11:07:26.120Z,6.25
2022-12-02T11:09:55.684Z,6.53
2022-12-02T11:12:34.006Z,6.47
2022-12-02T11:15:04.947Z,6.05
2022-12-02T11:17:49.947Z,6.60
2022-12-02T11:20:32.898Z,6.22
2022-12-02T11:23:23.819Z,6.35
2022-12-02T11:26:09.382Z,6.22
2022-12-02T11:29:14.217Z,6.45
2022-12-02T11:31:42.316Z,6.13
2022-12-02T11:35:08.816Z,6.32
2022-12-02T11:37:45.122Z,6.40
2022-12-02T11:40:45.075Z,7.07
2022-12-02T11:43:51.600Z,6.65
2022-12-02T11:46:19.856Z,6.37
2022-12-02T11:48:50.162Z,6.00
2022-12-02T11:51:39.587Z,6.53
2022-12-02T11:54:12.942Z,6.30
2022-12-02T11:56:40.888Z,5.95
2022-12-02T11:59:18.699Z,6.63
2022-12-02T12:01:45.417Z,6.00
2022-12-02T12:04:25.153Z,6.32
2022-12-02T12:06:56.794Z,6.13
2022-12-02T12:09:23.474Z,6.47
2022-12-02T12:12:05.839Z,5.87
2022-12-02T12:14:32.387Z,6.40
2022-12-02T12:17:17.655Z,6.47
2022-12-02T12:19:45.633Z,6.63
2022-12-02T12:22:25.344Z,6.90
2022-12-02T12:24:52.254Z,6.67
2022-12-02T12:27:36.721Z,6.80
2022-12-02T12:30:05.601Z,7.30
2022-12-02T12:32:32.638Z,7.60
2022-12-02T12:35:00.542Z,7.05
2022-12-02T12:37:27.043Z,7.70
2022-12-02T12:39:53.779Z,7.22
2022-12-02T12:42:20.313Z,7.60
2022-12-02T12:44:46.812Z,7.72
2022-12-02T12:47:13.368Z,7.32
2022-12-02T12:49:39.935Z,6.53
2022-12-02T12:52:07.950Z,6.93
2022-12-02T12:54:34.475Z,8.55
2022-12-02T12:57:01.095Z,7.40
2022-12-02T12:59:27.717Z,7.60
2022-12-02T13:01:54.393Z,7.17
2022-12-02T13:04:21.075Z,7.00
2022-12-02T13:06:47.690Z,7.20
2022-12-02T13:09:15.722Z,7.13
2022-12-02T13:11:42.837Z,7.47
2022-12-02T13:14:09.414Z,7.17
2022-12-02T13:16:36.330Z,7.70
2022-12-02T13:19:03.344Z,7.63
2022-12-02T13:21:30.130Z,7.70
2022-12-02T13:23:56.702Z,6.90
2022-12-02T13:26:24.566Z,7.60
2022-12-02T13:28:51.120Z,7.25
2022-12-02T13:31:17.679Z,8.10
2022-12-02T13:33:44.236Z,7.15
2022-12-02T13:36:10.803Z,7.38
2022-12-02T13:38:37.433Z,7.53
2022-12-02T13:41:03.984Z,7.68
2022-12-02T13:43:31.850Z,7.35
2022-12-02T13:45:58.407Z,7.63
2022-12-02T13:48:25.534Z,6.78
2022-12-02T13:50:52.387Z,7.57
2022-12-02T13:53:19.014Z,6.78
2022-12-02T13:55:45.666Z,7.32
2022-12-02T13:58:12.238Z,7.22
2022-12-02T14:00:40.208Z,7.40
2022-12-02T14:03:06.815Z,7.40
2022-12-02T14:05:33.425Z,6.88
2022-12-02T14:08:00.164Z,6.60
2022-12-02T14:10:26.793Z,6.90
2022-12-02T14:12:53.422Z,7.25
2022-12-02T14:15:19.965Z,7.00
2022-12-02T14:17:47.866Z,6.70
2022-12-02T14:20:14.596Z,6.97
2022-12-02T14:22:41.184Z,7.28
2022-12-02T14:25:08.622Z,7.20
2022-12-02T14:27:35.614Z,7.43
2022-12-02T14:30:02.235Z,7.30
2022-12-02T14:32:28.812Z,6.97
2022-12-02T14:34:56.740Z,6.50
2022-12-02T14:37:23.380Z,7.78
2022-12-02T14:39:49.968Z,6.80
2022-12-02T14:42:16.567Z,6.80
2022-12-02T14:44:43.173Z,6.60
2022-12-02T14:47:09.759Z,6.53
2022-12-02T14:49:40.911Z,6.95
2022-12-02T14:52:09.495Z,6.33
2022-12-02T14:54:36.064Z,7.00
2022-12-02T14:57:02.656Z,6.53
2022-12-02T14:59:29.176Z,6.70
2022-12-02T15:01:56.062Z,6.63
2022-12-02T15:04:22.775Z,6.10
2022-12-02T15:06:49.526Z,6.93
2022-12-02T15:09:17.461Z,6.28
2022-12-02T15:11:44.069Z,6.75
2022-12-02T15:14:10.735Z,7.22
2022-12-02T15:16:37.405Z,6.30
2022-12-02T15:19:04.169Z,5.97
2022-12-02T15:21:30.752Z,6.53
2022-12-02T15:23:57.300Z,5.97
2022-12-02T15:26:25.206Z,6.32
2022-12-02T15:28:51.989Z,5.80
2022-12-02T15:31:18.876Z,6.20
2022-12-02T15:33:46.143Z,6.15
2022-12-02T15:36:12.947Z,6.80
2022-12-02T15:38:39.650Z,6.13
2022-12-02T15:41:06.518Z,6.13
2022-12-02T15:43:34.631Z,6.05
2022-12-02T15:46:01.263Z,6.70
2022-12-02T15:48:27.994Z,6.30
2022-12-02T15:50:55.512Z,6.88
2022-12-02T15:53:22.522Z,5.90
2022-12-02T15:55:49.162Z,5.93
2022-12-02T15:58:15.949Z,5.95
2022-12-02T16:00:43.973Z,5.85
2022-12-02T16:03:10.761Z,5.63
2022-12-02T16:05:37.355Z,6.10
2022-12-02T16:08:04.519Z,6.18
2022-12-02T16:10:31.175Z,6.22
2022-12-02T16:12:57.784Z,6.07
2022-12-02T16:15:24.452Z,5.97
2022-12-02T16:17:52.463Z,5.60
2022-12-02T16:20:19.073Z,5.85
2022-12-02T16:22:45.711Z,5.90
2022-12-02T16:25:12.297Z,6.22
2022-12-02T16:27:38.878Z,5.63
2022-12-02T16:30:06.984Z,6.13
2022-12-02T16:32:33.527Z,5.68
2022-12-02T16:35:01.465Z,5.82
2022-12-02T16:37:28.236Z,5.22
2022-12-02T16:39:54.782Z,5.25
2022-12-02T16:42:21.431Z,5.20
2022-12-02T16:44:53.583Z,4.90
2022-12-02T16:47:22.143Z,5.53
2022-12-02T16:49:49.113Z,5.63
2022-12-02T16:52:17.255Z,5.68
2022-12-02T16:54:43.831Z,4.63
2022-12-02T16:57:10.591Z,5.28
2022-12-02T16:59:37.174Z,5.30
2022-12-02T17:02:03.846Z,4.80
2022-12-02T17:04:30.567Z,6.40
2022-12-02T17:06:57.067Z,5.17
2022-12-02T17:09:25.012Z,5.55
2022-12-02T17:11:51.766Z,5.22
2022-12-02T17:14:18.340Z,4.97
2022-12-02T17:16:44.960Z,5.13
2022-12-02T17:19:11.586Z,5.07
2022-12-02T17:21:38.115Z,4.47
2022-12-02T17:24:05.180Z,4.85
2022-12-02T17:26:33.149Z,5.28
2022-12-02T17:28:59.767Z,5.43
2022-12-02T17:31:26.419Z,5.60
2022-12-02T17:33:53.017Z,5.28
2022-12-02T17:36:19.699Z,5.68
2022-12-02T17:38:49.745Z,6.53
2022-12-02T17:41:19.450Z,4.80
2022-12-02T17:43:47.480Z,5.23
2022-12-02T17:46:14.547Z,4.75
2022-12-02T17:48:41.670Z,5.68
2022-12-02T17:51:08.247Z,4.72
2022-12-02T17:53:34.806Z,4.43
2022-12-02T17:56:01.396Z,4.40
2022-12-02T17:58:28.165Z,4.78
2022-12-02T18:00:56.100Z,4.38
2022-12-02T18:03:23.062Z,4.30
2022-12-02T18:05:50.141Z,3.88
2022-12-02T18:08:17.361Z,4.10
2022-12-02T18:10:44.221Z,4.00
2022-12-02T18:13:10.759Z,4.55
2022-12-02T18:15:37.587Z,3.97
2022-12-02T18:18:05.792Z,4.05
2022-12-02T18:20:32.586Z,3.47
2022-12-02T18:22:59.123Z,3.88
2022-12-02T18:25:25.848Z,5.13
2022-12-02T18:27:52.368Z,4.32
2022-12-02T18:30:19.575Z,4.00
2022-12-02T18:32:46.402Z,4.30
2022-12-02T18:35:14.878Z,3.88
2022-12-02T18:37:41.476Z,4.30
2022-12-02T18:40:10.216Z,4.15
2022-12-02T18:42:36.723Z,4.80
2022-12-02T18:45:03.776Z,4.33
2022-12-02T18:47:30.407Z,3.88
2022-12-02T18:49:56.972Z,4.32
2022-12-02T18:52:24.872Z,4.50
2022-12-02T18:54:51.770Z,4.38
2022-12-02T18:57:18.549Z,4.10
2022-12-02T18:59:45.100Z,4.30
2022-12-02T19:02:11.796Z,3.90
2022-12-02T19:04:38.679Z,3.88
2022-12-02T19:07:05.263Z,4.45
2022-12-02T19:09:33.149Z,4.13
2022-12-02T19:11:59.778Z,4.15
2022-12-02T19:14:26.359Z,4.65
2022-12-02T19:16:52.920Z,4.15
2022-12-02T19:19:19.536Z,4.32
2022-12-02T19:21:46.159Z,4.20
2022-12-02T19:24:12.790Z,5.10
2022-12-02T19:26:40.720Z,4.50
2022-12-02T19:29:07.331Z,5.80
2022-12-02T19:31:33.971Z,5.13
2022-12-02T19:34:00.763Z,5.07
2022-12-02T19:36:27.364Z,5.45
2022-12-02T19:38:53.933Z,5.15
2022-12-02T19:41:20.515Z,5.10
2022-12-02T19:43:48.472Z,4.90
2022-12-02T19:46:15.269Z,4.80
2022-12-02T19:48:41.899Z,5.57
2022-12-02T19:51:08.456Z,5.50
2022-12-02T19:53:35.309Z,5.80
2022-12-02T19:56:01.866Z,6.13
2022-12-02T19:58:28.578Z,5.43
2022-12-02T20:00:56.549Z,6.05
2022-12-02T20:03:23.190Z,7.35
2022-12-02T20:05:49.770Z,5.47
2022-12-02T20:08:16.581Z,5.65
2022-12-02T20:10:43.180Z,5.10
2022-12-02T20:13:09.883Z,5.13
2022-12-02T20:15:36.618Z,5.63
2022-12-02T20:18:04.722Z,5.72
2022-12-02T20:20:31.435Z,5.28
2022-12-02T20:22:57.977Z,5.33
2022-12-02T20:25:24.522Z,5.00
2022-12-02T20:27:54.409Z,5.13
2022-12-02T20:30:21.630Z,4.90
2022-12-02T20:32:48.319Z,5.20
2022-12-02T20:35:16.714Z,5.53
2022-12-02T20:37:43.312Z,5.00
2022-12-02T20:40:13.578Z,5.95
2022-12-02T20:42:40.664Z,5.80
2022-12-02T20:45:09.089Z,5.65
2022-12-02T20:47:35.719Z,4.73
2022-12-02T20:50:02.595Z,5.20
2022-12-02T20:52:30.543Z,5.25
2022-12-02T20:54:57.316Z,5.05
2022-12-02T20:57:24.036Z,5.80
2022-12-02T20:59:50.617Z,5.83
2022-12-02T21:02:17.272Z,5.47
2022-12-02T21:04:44.437Z,6.13
2022-12-02T21:07:11.196Z,5.55
2022-12-02T21:09:39.161Z,6.18
2022-12-02T21:12:06.005Z,6.40
2022-12-02T21:14:32.518Z,6.30
2022-12-02T21:16:59.099Z,7.15
2022-12-02T21:19:25.819Z,7.03
2022-12-02T21:21:52.407Z,6.75
2022-12-02T21:24:18.982Z,6.70
2022-12-02T21:26:46.937Z,6.95
2022-12-02T21:29:13.456Z,6.63
2022-12-02T21:31:40.123Z,6.13
2022-12-02T21:34:06.754Z,6.97
2022-12-02T21:36:33.297Z,6.07
2022-12-02T21:38:59.815Z,5.95
2022-12-02T21:41:26.355Z,6.20
2022-12-02T21:43:54.414Z,6.40
2022-12-02T21:46:21.250Z,6.70
2022-12-02T21:48:48.026Z,6.40
2022-12-02T21:51:14.600Z,6.63
2022-12-02T21:53:41.247Z,6.57
2022-12-02T21:56:08.372Z,5.95
2022-12-02T21:58:34.967Z,5.70
2022-12-02T22:01:03.145Z,6.03
2022-12-02T22:03:29.754Z,6.32
2022-12-02T22:05:56.304Z,6.47
2022-12-02T22:08:22.828Z,7.03
2022-12-02T22:10:49.521Z,7.25
2022-12-02T22:13:16.249Z,6.83
2022-12-02T22:15:42.776Z,7.18
2022-12-02T22:18:10.696Z,7.03
2022-12-02T22:20:37.234Z,6.55
2022-12-02T22:23:03.763Z,6.78
2022-12-02T22:25:32.934Z,7.10
2022-12-02T22:27:59.662Z,7.25
2022-12-02T22:30:26.188Z,6.93
2022-12-02T22:32:52.773Z,6.35
2022-12-02T22:35:20.672Z,6.47
2022-12-02T22:37:47.271Z,5.90
2022-12-02T22:40:13.996Z,6.22
2022-12-02T22:42:40.539Z,6.13
2022-12-02T22:45:07.822Z,5.53
2022-12-02T22:47:34.387Z,6.18
2022-12-02T22:50:01.000Z,5.43
2022-12-02T22:52:28.904Z,5.97
2022-12-02T22:54:55.737Z,6.28
2022-12-02T22:57:22.650Z,5.97
2022-12-02T22:59:49.221Z,5.30
2022-12-02T23:02:17.747Z,4.93
2022-12-02T23:04:44.518Z,5.70
2022-12-02T23:07:11.113Z,5.25
2022-12-02T23:09:39.081Z,5.43
2022-12-02T23:12:05.744Z,5.43
2022-12-02T23:14:32.318Z,5.50
2022-12-02T23:16:58.977Z,5.47
2022-12-02T23:19:25.575Z,5.75
2022-12-02T23:21:52.123Z,5.15
2022-12-02T23:24:18.650Z,5.32
2022-12-02T23:26:46.624Z,5.37
2022-12-02T23:29:13.132Z,5.63
2022-12-02T23:31:39.760Z,5.47
2022-12-02T23:34:06.382Z,4.82
2022-12-02T23:36:35.227Z,5.60
2022-12-02T23:39:02.080Z,5.07
2022-12-02T23:41:28.608Z,5.60
2022-12-02T23:43:56.676Z,5.88
2022-12-02T23:46:23.277Z,5.43
2022-12-02T23:48:49.894Z,5.32
2022-12-02T23:51:16.475Z,5.10
2022-12-02T23:53:43.066Z,4.60
2022-12-02T23:56:09.701Z,4.95
2022-12-02T23:58:36.287Z,5.10
